createdAt,value
2018-02-03T00:00:21.333Z,53.08
2018-02-03T00:02:47.256Z,53.31
2018-02-03T00:05:13.199Z,53.70
2018-02-03T00:07:39.146Z,53.42
2018-02-03T00:10:05.069Z,53.76
2018-02-03T00:12:31.002Z,53.95
2018-02-03T00:14:56.935Z,54.03
2018-02-03T00:17:22.901Z,54.08
2018-02-03T00:19:48.841Z,54.01
2018-02-03T00:22:14.764Z,54.02
2018-02-03T00:24:40.691Z,53.47
2018-02-03T00:27:06.642Z,53.84
2018-02-03T00:29:32.590Z,54.47
2018-02-03T00:31:58.537Z,55.80
2018-02-03T00:34:24.466Z,56.05
2018-02-03T00:36:50.410Z,56.39
2018-02-03T00:39:16.333Z,57.39
2018-02-03T00:41:42.261Z,56.69
2018-02-03T00:44:08.186Z,56.27
2018-02-03T00:46:34.131Z,56.93
2018-02-03T00:49:00.130Z,56.81
2018-02-03T00:51:26.074Z,56.35
2018-02-03T00:53:52.003Z,57.30
2018-02-03T00:56:17.936Z,56.75
2018-02-03T00:58:43.862Z,56.58
2018-02-03T01:01:09.845Z,56.66
2018-02-03T01:03:35.770Z,56.98
2018-02-03T01:06:01.727Z,56.88
2018-02-03T01:08:27.652Z,56.86
2018-02-03T01:10:53.622Z,56.77
2018-02-03T01:13:19.558Z,56.68
2018-02-03T01:15:45.508Z,56.76
2018-02-03T01:18:11.455Z,56.68
2018-02-03T01:20:37.378Z,57.07
2018-02-03T01:23:03.325Z,56.64
2018-02-03T01:25:29.258Z,56.55
2018-02-03T01:27:55.184Z,57.41
2018-02-03T01:30:21.122Z,56.96
2018-02-03T01:32:47.058Z,57.38
2018-02-03T01:35:12.994Z,57.22
2018-02-03T01:37:38.938Z,57.09
2018-02-03T01:40:04.853Z,57.27
2018-02-03T01:42:30.792Z,57.28
2018-02-03T01:44:56.741Z,57.17
2018-02-03T01:47:22.687Z,57.18
2018-02-03T01:49:48.626Z,57.68
2018-02-03T01:52:14.600Z,57.62
2018-02-03T01:54:40.531Z,56.94
2018-02-03T01:57:06.474Z,57.48
2018-02-03T01:59:32.415Z,57.60
2018-02-03T02:01:58.373Z,57.87
2018-02-03T02:04:24.306Z,57.92
2018-02-03T02:06:50.284Z,57.75
2018-02-03T02:09:16.228Z,57.64
2018-02-03T02:11:42.171Z,57.43
2018-02-03T02:14:08.098Z,57.57
2018-02-03T02:16:34.016Z,57.43
2018-02-03T02:18:59.948Z,57.10
2018-02-03T02:21:25.906Z,56.87
2018-02-03T02:23:51.836Z,57.24
2018-02-03T02:26:17.776Z,57.86
2018-02-03T02:28:43.704Z,57.00
2018-02-03T02:31:09.646Z,56.92
2018-02-03T02:33:35.574Z,57.83
2018-02-03T02:36:01.513Z,57.39
2018-02-03T02:38:27.497Z,56.99
2018-02-03T02:40:53.420Z,56.74
2018-02-03T02:43:19.363Z,56.50
2018-02-03T02:45:45.282Z,56.77
2018-02-03T02:48:11.223Z,56.96
2018-02-03T02:50:37.157Z,56.78
2018-02-03T02:53:03.110Z,57.33
2018-02-03T02:55:29.035Z,56.97
2018-02-03T02:57:54.995Z,57.15
2018-02-03T03:00:20.915Z,57.06
2018-02-03T03:02:46.854Z,57.07
2018-02-03T03:05:12.802Z,56.70
2018-02-03T03:07:38.729Z,57.02
2018-02-03T03:10:04.667Z,56.99
2018-02-03T03:12:30.600Z,57.19
2018-02-03T03:14:56.527Z,57.13
2018-02-03T03:17:22.481Z,57.77
2018-02-03T03:19:48.418Z,56.89
2018-02-03T03:22:14.347Z,57.49
2018-02-03T03:24:40.284Z,57.41
2018-02-03T03:27:06.222Z,57.98
2018-02-03T03:29:32.153Z,56.72
2018-02-03T03:31:58.074Z,57.35
2018-02-03T03:34:24.035Z,58.13
2018-02-03T03:36:50.010Z,58.61
2018-02-03T03:39:15.940Z,57.65
2018-02-03T03:41:41.887Z,57.65
2018-02-03T03:44:07.853Z,56.66
2018-02-03T03:46:33.813Z,57.27
2018-02-03T03:48:59.752Z,57.00
2018-02-03T03:51:25.691Z,57.42
2018-02-03T03:53:51.621Z,57.12
2018-02-03T03:56:17.567Z,57.26
2018-02-03T03:58:43.529Z,57.41
2018-02-03T04:01:09.497Z,57.33
2018-02-03T04:03:35.431Z,57.13
2018-02-03T04:06:01.370Z,56.76
2018-02-03T04:08:27.321Z,56.71
2018-02-03T04:10:53.255Z,56.88
2018-02-03T04:13:19.188Z,57.33
2018-02-03T04:15:45.106Z,57.40
2018-02-03T04:18:11.030Z,57.29
2018-02-03T04:20:36.960Z,57.82
2018-02-03T04:23:02.971Z,58.05
2018-02-03T04:25:28.904Z,57.95
2018-02-03T04:27:54.838Z,58.60
2018-02-03T04:30:20.817Z,58.91
2018-02-03T04:32:46.754Z,58.90
2018-02-03T04:35:12.693Z,59.12
2018-02-03T04:37:38.624Z,59.39
2018-02-03T04:40:04.563Z,58.84
2018-02-03T04:42:30.521Z,58.92
2018-02-03T04:44:56.447Z,59.38
2018-02-03T04:47:22.381Z,58.92
2018-02-03T04:49:48.300Z,58.76
2018-02-03T04:52:14.283Z,59.14
2018-02-03T04:54:40.206Z,58.85
2018-02-03T04:57:06.181Z,58.98
2018-02-03T04:59:32.103Z,58.13
2018-02-03T05:01:58.057Z,58.20
2018-02-03T05:04:23.983Z,58.68
2018-02-03T05:06:49.915Z,58.54
2018-02-03T05:09:15.836Z,58.19
2018-02-03T05:11:41.801Z,58.87
2018-02-03T05:14:07.760Z,58.86
2018-02-03T05:16:33.709Z,58.65
2018-02-03T05:18:59.628Z,59.00
2018-02-03T05:21:25.646Z,58.87
2018-02-03T05:23:51.584Z,59.26
2018-02-03T05:26:17.565Z,58.61
2018-02-03T05:28:43.528Z,59.28
2018-02-03T05:31:09.468Z,59.02
2018-02-03T05:33:35.405Z,59.52
2018-02-03T05:36:01.341Z,58.81
2018-02-03T05:38:27.286Z,59.17
2018-02-03T05:40:53.327Z,59.91
2018-02-03T05:43:19.257Z,59.67
2018-02-03T05:45:45.200Z,59.17
2018-02-03T05:48:11.127Z,59.34
2018-02-03T05:50:37.057Z,59.37
2018-02-03T05:53:02.989Z,59.55
2018-02-03T05:55:28.943Z,59.98
2018-02-03T05:57:54.869Z,59.46
2018-02-03T06:00:20.815Z,59.43
2018-02-03T06:02:46.758Z,59.70
2018-02-03T06:05:12.700Z,60.49
2018-02-03T06:07:38.629Z,60.07
2018-02-03T06:10:04.594Z,60.36
2018-02-03T06:12:30.547Z,60.00
2018-02-03T06:14:56.505Z,59.69
2018-02-03T06:17:22.444Z,59.59
2018-02-03T06:19:48.426Z,58.91
2018-02-03T06:22:14.358Z,59.38
2018-02-03T06:24:40.302Z,59.54
2018-02-03T06:27:06.263Z,59.98
2018-02-03T06:29:32.197Z,60.43
2018-02-03T06:31:58.137Z,60.38
2018-02-03T06:34:24.159Z,60.04
2018-02-03T06:36:50.091Z,59.13
2018-02-03T06:39:16.016Z,59.56
2018-02-03T06:41:41.951Z,60.70
2018-02-03T06:44:07.869Z,60.88
2018-02-03T06:46:33.799Z,60.13
2018-02-03T06:48:59.734Z,61.11
2018-02-03T06:51:25.699Z,62.53
2018-02-03T06:53:51.659Z,61.55
2018-02-03T06:56:17.587Z,61.73
2018-02-03T06:58:43.568Z,61.92
2018-02-03T07:01:09.497Z,61.92
2018-02-03T07:03:35.422Z,61.97
2018-02-03T07:06:01.362Z,61.82
2018-02-03T07:08:27.281Z,62.24
2018-02-03T07:10:53.252Z,61.51
2018-02-03T07:13:19.234Z,61.89
2018-02-03T07:15:45.165Z,61.75
2018-02-03T07:18:11.095Z,62.61
2018-02-03T07:20:37.077Z,61.99
2018-02-03T07:23:03.029Z,62.25
2018-02-03T07:25:28.991Z,62.26
2018-02-03T07:27:54.930Z,63.13
2018-02-03T07:30:20.877Z,62.08
2018-02-03T07:32:46.813Z,61.50
2018-02-03T07:35:12.738Z,62.10
2018-02-03T07:37:38.689Z,62.44
2018-02-03T07:40:04.658Z,62.68
2018-02-03T07:42:30.573Z,61.98
2018-02-03T07:44:56.497Z,61.78
2018-02-03T07:47:22.432Z,62.83
2018-02-03T07:49:48.402Z,61.71
2018-02-03T07:52:14.330Z,62.03
2018-02-03T07:54:40.276Z,61.48
2018-02-03T07:57:06.208Z,61.39
2018-02-03T07:59:32.134Z,61.12
2018-02-03T08:01:58.086Z,60.55
2018-02-03T08:04:24.022Z,60.64
2018-02-03T08:06:49.944Z,60.23
2018-02-03T08:09:15.882Z,59.99
2018-02-03T08:11:41.818Z,60.94
2018-02-03T08:14:07.762Z,59.83
2018-02-03T08:16:33.711Z,59.38
2018-02-03T08:18:59.642Z,59.38
2018-02-03T08:21:25.586Z,59.64
2018-02-03T08:23:51.524Z,58.80
2018-02-03T08:26:17.489Z,58.39
2018-02-03T08:28:43.452Z,58.23
2018-02-03T08:31:09.395Z,58.18
2018-02-03T08:33:35.330Z,57.51
2018-02-03T08:36:01.281Z,57.77
2018-02-03T08:38:27.272Z,58.19
2018-02-03T08:40:53.224Z,58.09
2018-02-03T08:43:19.285Z,57.74
2018-02-03T08:45:45.248Z,58.67
2018-02-03T08:48:11.227Z,58.51
2018-02-03T08:50:37.190Z,58.71
2018-02-03T08:53:03.147Z,57.63
2018-02-03T08:55:29.094Z,57.37
2018-02-03T08:57:55.062Z,56.41
2018-02-03T09:00:20.998Z,57.09
2018-02-03T09:02:46.958Z,56.98
2018-02-03T09:05:12.928Z,56.36
2018-02-03T09:07:38.926Z,55.96
2018-02-03T09:10:04.907Z,54.79
2018-02-03T09:12:30.878Z,55.81
2018-02-03T09:14:56.860Z,56.18
2018-02-03T09:17:22.836Z,56.29
2018-02-03T09:19:48.797Z,55.39
2018-02-03T09:22:14.832Z,55.35
2018-02-03T09:24:40.795Z,55.30
2018-02-03T09:27:06.763Z,55.20
2018-02-03T09:29:32.723Z,55.23
2018-02-03T09:31:58.650Z,55.43
2018-02-03T09:34:24.634Z,55.34
2018-02-03T09:36:50.580Z,55.08
2018-02-03T09:39:16.530Z,54.88
2018-02-03T09:41:42.479Z,55.65
2018-02-03T09:44:08.484Z,55.12
2018-02-03T09:46:34.447Z,54.56
2018-02-03T09:49:00.458Z,54.07
2018-02-03T09:51:26.432Z,53.67
2018-02-03T09:53:52.379Z,53.64
2018-02-03T09:56:18.330Z,53.41
2018-02-03T09:58:44.251Z,52.77
2018-02-03T10:01:10.201Z,52.40
2018-02-03T10:03:36.135Z,52.40
2018-02-03T10:06:02.064Z,52.62
2018-02-03T10:08:28.039Z,52.29
2018-02-03T10:10:53.957Z,52.67
2018-02-03T10:13:19.920Z,52.42
2018-02-03T10:15:45.882Z,51.84
2018-02-03T10:18:11.843Z,50.35
2018-02-03T10:20:38.019Z,50.68
2018-02-03T10:23:03.973Z,50.25
2018-02-03T10:25:29.959Z,50.35
2018-02-03T10:27:55.928Z,50.14
2018-02-03T10:30:21.909Z,49.47
2018-02-03T10:32:47.926Z,48.77
2018-02-03T10:35:13.891Z,48.95
2018-02-03T10:37:40.763Z,48.71
2018-02-03T10:40:06.706Z,49.09
2018-02-03T10:42:32.681Z,48.88
2018-02-03T10:44:59.011Z,48.59
2018-02-03T10:47:25.025Z,48.49
2018-02-03T10:49:51.059Z,49.26
2018-02-03T10:52:17.009Z,48.63
2018-02-03T10:54:42.997Z,49.52
2018-02-03T10:57:08.983Z,49.45
2018-02-03T10:59:34.931Z,49.16
2018-02-03T11:02:01.003Z,49.71
2018-02-03T11:04:27.099Z,49.05
2018-02-03T11:06:53.053Z,49.64
2018-02-03T11:09:19.009Z,49.55
2018-02-03T11:11:44.979Z,50.04
2018-02-03T11:14:10.964Z,50.38
2018-02-03T11:16:36.921Z,50.70
2018-02-03T11:19:02.972Z,51.22
2018-02-03T11:21:28.927Z,51.13
2018-02-03T11:23:54.860Z,51.07
2018-02-03T11:26:20.838Z,50.34
2018-02-03T11:28:46.784Z,50.68
2018-02-03T11:31:12.706Z,50.54
2018-02-03T11:33:38.782Z,50.70
2018-02-03T11:36:04.752Z,50.05
2018-02-03T11:38:30.859Z,50.56
2018-02-03T11:40:56.834Z,49.88
2018-02-03T11:43:22.777Z,50.56
2018-02-03T11:45:48.720Z,51.06
2018-02-03T11:48:14.673Z,51.52
2018-02-03T11:50:40.613Z,51.35
2018-02-03T11:53:06.562Z,51.76
2018-02-03T11:55:32.505Z,51.94
2018-02-03T11:57:58.466Z,52.06
2018-02-03T12:00:24.401Z,51.88
2018-02-03T12:02:50.402Z,50.71
2018-02-03T12:05:16.347Z,50.99
2018-02-03T12:07:42.610Z,51.77
2018-02-03T12:10:08.599Z,51.38
2018-02-03T12:12:34.562Z,51.81
2018-02-03T12:15:00.513Z,51.26
2018-02-03T12:17:26.514Z,51.57
2018-02-03T12:19:52.562Z,51.79
2018-02-03T12:22:18.573Z,51.78
2018-02-03T12:24:44.500Z,52.02
2018-02-03T12:27:10.468Z,52.52
2018-02-03T12:29:36.408Z,52.79
2018-02-03T12:32:02.349Z,53.22
2018-02-03T12:34:28.290Z,50.95
2018-02-03T12:36:54.252Z,52.03
2018-02-03T12:39:20.197Z,52.06
2018-02-03T12:41:46.262Z,51.98
2018-02-03T12:44:12.269Z,51.88
2018-02-03T12:46:38.250Z,56.48
2018-02-03T12:49:04.197Z,57.86
2018-02-03T12:51:31.662Z,56.73
2018-02-03T12:53:58.703Z,55.28
2018-02-03T12:56:24.688Z,53.81
2018-02-03T12:58:50.651Z,52.83
2018-02-03T13:01:17.718Z,53.22
2018-02-03T13:03:43.761Z,53.53
2018-02-03T13:06:10.797Z,53.83
2018-02-03T13:08:36.810Z,53.43
2018-02-03T13:11:02.767Z,53.05
2018-02-03T13:13:28.691Z,53.68
2018-02-03T13:15:54.734Z,52.94
2018-02-03T13:18:20.684Z,52.97
2018-02-03T13:20:46.639Z,53.21
2018-02-03T13:23:12.572Z,52.69
2018-02-03T13:25:38.541Z,53.25
2018-02-03T13:28:04.521Z,53.04
2018-02-03T13:30:30.455Z,52.98
2018-02-03T13:32:57.474Z,53.79
2018-02-03T13:35:25.056Z,52.76
2018-02-03T13:37:51.180Z,52.69
2018-02-03T13:40:17.724Z,53.28
2018-02-03T13:42:43.663Z,53.67
2018-02-03T13:45:09.618Z,53.73
2018-02-03T13:47:35.554Z,53.51
2018-02-03T13:50:01.504Z,53.28
2018-02-03T13:52:27.450Z,53.80
2018-02-03T13:54:53.409Z,53.51
2018-02-03T13:57:19.375Z,53.76
2018-02-03T13:59:45.344Z,53.50
2018-02-03T14:02:11.296Z,53.54
2018-02-03T14:04:37.261Z,54.14
2018-02-03T14:07:03.210Z,53.92
2018-02-03T14:09:29.138Z,53.26
2018-02-03T14:11:55.100Z,53.70
2018-02-03T14:14:21.052Z,53.50
2018-02-03T14:16:46.994Z,53.14
2018-02-03T14:19:12.942Z,53.82
2018-02-03T14:21:38.896Z,53.93
2018-02-03T14:24:04.839Z,54.90
2018-02-03T14:26:30.778Z,54.18
2018-02-03T14:28:56.714Z,53.48
2018-02-03T14:31:22.662Z,53.24
2018-02-03T14:33:48.602Z,54.42
2018-02-03T14:36:14.537Z,54.08
2018-02-03T14:38:40.502Z,54.15
2018-02-03T14:41:06.514Z,54.45
2018-02-03T14:43:32.440Z,53.53
2018-02-03T14:45:58.382Z,54.35
2018-02-03T14:48:24.312Z,54.44
2018-02-03T14:50:50.266Z,54.37
2018-02-03T14:53:16.246Z,53.86
2018-02-03T14:55:43.303Z,53.54
2018-02-03T14:58:09.346Z,53.27
2018-02-03T15:00:36.408Z,53.50
2018-02-03T15:03:02.373Z,54.39
2018-02-03T15:05:28.371Z,54.36
2018-02-03T15:07:54.337Z,54.83
2018-02-03T15:10:20.347Z,54.51
2018-02-03T15:12:46.302Z,54.89
2018-02-03T15:15:12.252Z,54.35
2018-02-03T15:17:38.219Z,54.57
2018-02-03T15:20:04.210Z,54.64
2018-02-03T15:22:30.159Z,54.61
2018-02-03T15:24:56.231Z,54.75
2018-02-03T15:27:22.183Z,54.78
2018-02-03T15:29:48.164Z,54.20
2018-02-03T15:32:14.161Z,54.71
2018-02-03T15:34:40.132Z,54.88
2018-02-03T15:37:06.140Z,54.69
2018-02-03T15:39:32.146Z,54.88
2018-02-03T15:41:58.155Z,54.60
2018-02-03T15:44:24.190Z,54.62
2018-02-03T15:46:50.192Z,54.28
2018-02-03T15:49:16.247Z,54.32
2018-02-03T15:51:42.285Z,55.12
2018-02-03T15:54:08.247Z,55.84
2018-02-03T15:56:35.271Z,55.33
2018-02-03T15:59:01.241Z,55.84
2018-02-03T16:01:27.285Z,55.47
2018-02-03T16:03:53.204Z,55.43
2018-02-03T16:06:19.147Z,55.58
2018-02-03T16:08:45.155Z,55.77
2018-02-03T16:11:11.101Z,56.49
2018-02-03T16:13:37.043Z,56.19
2018-02-03T16:16:02.999Z,56.26
2018-02-03T16:18:28.957Z,56.58
2018-02-03T16:20:54.899Z,56.53
2018-02-03T16:23:20.913Z,56.15
2018-02-03T16:25:46.873Z,56.22
2018-02-03T16:28:12.827Z,56.52
2018-02-03T16:30:38.779Z,57.85
2018-02-03T16:33:04.740Z,57.28
2018-02-03T16:35:30.685Z,58.18
2018-02-03T16:37:56.645Z,58.78
2018-02-03T16:40:22.594Z,59.19
2018-02-03T16:42:48.562Z,58.86
2018-02-03T16:45:14.603Z,59.22
2018-02-03T16:47:41.610Z,60.19
2018-02-03T16:50:07.648Z,60.02
2018-02-03T16:52:33.626Z,59.12
2018-02-03T16:54:59.658Z,58.62
2018-02-03T16:57:25.634Z,58.74
2018-02-03T16:59:51.664Z,59.45
2018-02-03T17:02:17.678Z,60.33
2018-02-03T17:04:43.780Z,60.46
2018-02-03T17:07:09.718Z,59.67
2018-02-03T17:09:35.658Z,60.04
2018-02-03T17:12:01.674Z,60.87
2018-02-03T17:14:27.609Z,60.96
2018-02-03T17:16:53.598Z,60.88
2018-02-03T17:19:19.618Z,61.79
2018-02-03T17:21:45.534Z,61.28
2018-02-03T17:24:11.484Z,61.03
2018-02-03T17:26:37.486Z,61.57
2018-02-03T17:29:03.416Z,61.01
2018-02-03T17:31:29.350Z,60.76
2018-02-03T17:33:56.430Z,60.45
2018-02-03T17:36:22.390Z,61.22
2018-02-03T17:38:48.876Z,61.72
2018-02-03T17:41:15.187Z,61.94
2018-02-03T17:43:43.402Z,61.02
2018-02-03T17:46:09.439Z,60.57
2018-02-03T17:48:37.547Z,59.85
2018-02-03T17:51:03.643Z,59.75
2018-02-03T17:53:29.591Z,60.79
2018-02-03T17:55:55.529Z,61.58
2018-02-03T17:58:21.451Z,62.56
2018-02-03T18:00:47.407Z,62.13
2018-02-03T18:03:15.470Z,62.33
2018-02-03T18:05:41.477Z,62.50
2018-02-03T18:08:07.478Z,63.23
2018-02-03T18:10:33.506Z,64.07
2018-02-03T18:12:59.527Z,63.80
2018-02-03T18:15:25.484Z,64.11
2018-02-03T18:17:51.428Z,64.01
2018-02-03T18:20:17.425Z,63.81
2018-02-03T18:22:43.365Z,63.79
2018-02-03T18:25:09.348Z,63.74
2018-02-03T18:27:35.321Z,64.46
2018-02-03T18:30:01.488Z,64.36
2018-02-03T18:32:27.544Z,64.22
2018-02-03T18:34:53.492Z,62.86
2018-02-03T18:37:19.437Z,63.34
2018-02-03T18:39:45.390Z,62.31
2018-02-03T18:42:11.318Z,64.26
2018-02-03T18:44:37.262Z,63.35
2018-02-03T18:47:03.192Z,63.14
2018-02-03T18:49:29.168Z,63.78
2018-02-03T18:51:55.113Z,63.30
2018-02-03T18:54:21.043Z,63.43
2018-02-03T18:56:47.008Z,63.35
2018-02-03T18:59:13.116Z,63.74
2018-02-03T19:01:39.050Z,65.08
2018-02-03T19:04:05.008Z,64.11
2018-02-03T19:06:30.950Z,64.93
2018-02-03T19:08:56.886Z,64.61
2018-02-03T19:11:22.838Z,65.69
2018-02-03T19:13:48.828Z,64.69
2018-02-03T19:16:14.762Z,63.56
2018-02-03T19:18:40.754Z,63.35
2018-02-03T19:21:06.693Z,62.81
2018-02-03T19:23:32.606Z,64.01
2018-02-03T19:25:58.560Z,64.37
2018-02-03T19:28:24.499Z,64.87
2018-02-03T19:30:50.440Z,63.92
2018-02-03T19:33:16.487Z,64.64
2018-02-03T19:35:42.430Z,64.39
2018-02-03T19:38:08.357Z,63.83
2018-02-03T19:40:34.296Z,63.38
2018-02-03T19:43:00.220Z,63.82
2018-02-03T19:45:26.172Z,63.62
2018-02-03T19:47:52.114Z,64.16
2018-02-03T19:50:18.138Z,64.22
2018-02-03T19:52:44.062Z,63.00
2018-02-03T19:55:10.017Z,63.23
2018-02-03T19:57:35.960Z,63.20
2018-02-03T20:00:01.902Z,62.90
2018-02-03T20:02:27.830Z,63.41
2018-02-03T20:04:53.792Z,63.89
2018-02-03T20:07:19.784Z,63.33
2018-02-03T20:09:45.721Z,62.47
2018-02-03T20:12:11.642Z,62.40
2018-02-03T20:14:37.578Z,63.06
2018-02-03T20:17:03.516Z,63.54
2018-02-03T20:19:30.346Z,63.41
2018-02-03T20:21:56.279Z,62.66
2018-02-03T20:24:22.237Z,62.32
2018-02-03T20:26:48.172Z,61.24
2018-02-03T20:29:14.118Z,61.21
2018-02-03T20:31:40.050Z,61.52
2018-02-03T20:34:05.998Z,60.51
2018-02-03T20:36:31.940Z,60.39
2018-02-03T20:38:57.899Z,59.95
2018-02-03T20:41:23.852Z,59.59
2018-02-03T20:43:49.812Z,59.78
2018-02-03T20:46:15.754Z,59.53
2018-02-03T20:48:41.709Z,59.30
2018-02-03T20:51:08.072Z,59.63
2018-02-03T20:56:11.334Z,61.30
2018-02-03T20:58:37.966Z,61.06
2018-02-03T21:01:03.938Z,60.60
2018-02-03T21:03:29.881Z,62.12
2018-02-03T21:05:55.861Z,63.48
2018-02-03T21:08:21.851Z,63.27
2018-02-03T21:10:47.826Z,62.71
2018-02-03T21:13:13.874Z,63.17
2018-02-03T21:15:40.339Z,62.15
2018-02-03T21:18:06.299Z,63.09
2018-02-03T21:23:03.442Z,63.11
2018-02-03T21:25:29.389Z,61.51
2018-02-03T21:27:55.414Z,62.29
2018-02-03T21:30:21.394Z,63.01
2018-02-03T21:32:47.709Z,62.98
2018-02-03T21:35:13.721Z,62.53
2018-02-03T21:37:39.694Z,63.26
2018-02-03T21:45:09.049Z,62.06
2018-02-03T21:47:35.058Z,61.20
2018-02-03T21:52:32.544Z,60.20
2018-02-03T21:57:35.410Z,60.15
2018-02-03T22:00:01.456Z,61.26
2018-02-03T22:02:27.454Z,61.18
2018-02-03T22:04:53.408Z,61.21
2018-02-03T22:07:19.357Z,60.79
2018-02-03T22:09:45.331Z,61.55
2018-02-03T22:12:11.380Z,61.20
2018-02-03T22:14:37.433Z,61.82
2018-02-03T22:17:03.398Z,60.98
2018-02-03T22:19:29.355Z,60.03
2018-02-03T22:21:55.312Z,62.88
2018-02-03T22:24:21.238Z,61.42
2018-02-03T22:26:47.172Z,61.20
2018-02-03T22:29:13.103Z,61.89
2018-02-03T22:31:39.050Z,62.55
2018-02-03T22:34:05.063Z,62.63
2018-02-03T22:36:31.010Z,61.42
2018-02-03T22:38:56.959Z,58.74
2018-02-03T22:41:22.937Z,60.40
2018-02-03T22:43:48.875Z,61.81
2018-02-03T22:46:14.869Z,61.99
2018-02-03T22:48:42.848Z,62.79
2018-02-03T22:51:08.827Z,61.94
2018-02-03T22:53:34.787Z,62.70
2018-02-03T22:56:00.823Z,62.80
2018-02-03T22:58:26.771Z,63.74
2018-02-03T23:00:52.704Z,63.14
2018-02-03T23:03:18.641Z,62.01
2018-02-03T23:05:44.631Z,63.25
2018-02-03T23:08:10.581Z,63.93
2018-02-03T23:10:36.545Z,63.40
2018-02-03T23:13:02.483Z,62.40
2018-02-03T23:15:28.403Z,61.85
2018-02-03T23:17:54.356Z,62.97
2018-02-03T23:20:20.309Z,63.31
2018-02-03T23:22:46.262Z,63.38
2018-02-03T23:25:12.186Z,62.80
2018-02-03T23:27:38.128Z,62.22
2018-02-03T23:30:05.159Z,63.43
2018-02-03T23:32:31.176Z,64.26
2018-02-03T23:34:57.135Z,63.98
2018-02-03T23:37:24.151Z,63.33
2018-02-03T23:39:50.081Z,64.05
2018-02-03T23:42:16.087Z,64.23
2018-02-03T23:44:42.058Z,64.71
2018-02-03T23:47:08.017Z,64.76
2018-02-03T23:49:34.003Z,62.83
2018-02-03T23:51:59.953Z,62.06
2018-02-03T23:54:25.907Z,62.29
2018-02-03T23:56:51.858Z,63.68
2018-02-03T23:59:18.101Z,64.06
